Time;durP1;ratioP1;P1;durP2;ratioP2;P2;SDS_P1;SDS_P2;PMS_P1;PMS_P2;Temp;Humidity;BMP_temperature;BMP_pressure;BME280_temperature;BME280_humidity;BME280_pressure;Samples;Min_cycle;Max_cycle;Signal;HPM_P1;HPM_P2
2023/03/13 00:01:40;;;;;;;10.57;3.87;;;;;;;11.64;54.53;98326.06;7057550;28;20311;-83
2023/03/13 00:05:02;;;;;;;6.43;3.60;;;;;;;11.50;55.34;98329.91;7058239;28;20557;-84
2023/03/13 00:08:24;;;;;;;9.23;4.03;;;;;;;11.36;56.19;98320.31;7058133;28;20208;-83
2023/03/13 00:11:46;;;;;;;6.73;3.60;;;;;;;11.06;57.13;98327.44;7057225;28;20257;-84
2023/03/13 00:15:08;;;;;;;9.90;3.37;;;;;;;10.95;57.24;98308.41;7057842;28;20353;-83
2023/03/13 00:18:31;;;;;;;8.40;3.60;;;;;;;11.17;57.05;98323.97;7057475;28;20303;-83
2023/03/13 00:21:53;;;;;;;8.07;3.90;;;;;;;11.31;56.82;98316.59;7056819;28;20376;-84
2023/03/13 00:25:14;;;;;;;9.27;3.67;;;;;;;11.52;56.34;98308.91;7056937;28;20313;-84
2023/03/13 00:28:37;;;;;;;10.03;4.00;;;;;;;11.25;56.78;98304.00;7057805;28;20208;-84
2023/03/13 00:31:59;;;;;;;6.47;3.50;;;;;;;10.88;58.22;98299.56;7056461;28;20269;-84
2023/03/13 00:35:22;;;;;;;13.70;5.23;;;;;;;10.89;58.12;98315.53;7057684;28;20284;-84
2023/03/13 00:38:43;;;;;;;11.63;3.83;;;;;;;11.37;57.10;98316.56;7056657;28;20212;-84
2023/03/13 00:42:05;;;;;;;9.50;4.30;;;;;;;10.73;57.54;98272.06;7056916;28;20228;-83
2023/03/13 00:45:27;;;;;;;13.83;4.30;;;;;;;10.51;58.89;98277.00;7057176;28;20204;-83
2023/03/13 00:48:49;;;;;;;8.27;3.60;;;;;;;11.12;57.78;98277.97;7056719;28;20283;-83
2023/03/13 00:52:11;;;;;;;11.43;3.83;;;;;;;11.21;57.90;98305.50;7056118;28;20940;-84
2023/03/13 00:55:33;;;;;;;6.67;3.67;;;;;;;11.10;58.06;98293.53;7056700;28;20270;-84
2023/03/13 00:58:54;;;;;;;12.63;4.10;;;;;;;11.34;57.24;98289.19;7060306;28;20286;-84
2023/03/13 01:02:16;;;;;;;12.37;4.70;;;;;;;11.21;56.64;98228.06;7054793;28;20228;-84
2023/03/13 01:05:37;;;;;;;7.70;3.57;;;;;;;11.39;56.84;98281.25;7031859;28;20217;-84
2023/03/13 01:09:01;;;;;;;14.80;3.93;;;;;;;11.09;57.65;98253.31;7032405;28;20345;-84
2023/03/13 01:12:22;;;;;;;8.57;3.90;;;;;;;11.67;56.45;98266.22;7031633;28;20317;-84
2023/03/13 01:15:44;;;;;;;11.23;4.03;;;;;;;11.23;57.81;98260.22;7032457;28;20204;-84
2023/03/13 01:19:07;;;;;;;8.20;3.67;;;;;;;11.28;57.33;98206.44;7032180;28;20303;-84
2023/03/13 01:22:28;;;;;;;8.37;3.87;;;;;;;11.92;56.26;98233.75;7031009;28;20302;-84
2023/03/13 01:25:51;;;;;;;7.67;3.40;;;;;;;11.99;56.14;98240.69;7027392;28;20213;-84
2023/03/13 01:29:13;;;;;;;13.67;4.10;;;;;;;11.75;56.08;98230.81;7027498;28;20212;-84
2023/03/13 01:32:35;;;;;;;11.43;4.33;;;;;;;11.67;56.11;98220.31;7026447;28;20250;-84
2023/03/13 01:36:01;;;;;;;12.87;3.63;;;;;;;11.92;55.54;98209.44;7026933;28;20291;-84
2023/03/13 01:39:22;;;;;;;7.07;3.30;;;;;;;12.13;55.09;98214.31;7027912;28;20205;-84
2023/03/13 01:42:53;;;;;;;10.03;3.90;;;;;;;11.86;55.17;98208.44;7026373;28;20229;-84
2023/03/13 01:46:17;;;;;;;10.57;4.13;;;;;;;12.03;54.96;98193.25;7026928;28;20283;-84
2023/03/13 01:49:39;;;;;;;12.33;3.67;;;;;;;11.93;55.46;98195.66;7026836;28;20198;-84
2023/03/13 01:53:00;;;;;;;10.43;3.93;;;;;;;11.91;55.80;98184.28;7028186;28;20225;-84
2023/03/13 01:56:26;;;;;;;5.90;3.90;;;;;;;11.99;55.14;98172.34;7031520;28;20284;-84
2023/03/13 01:59:52;;;;;;;6.53;3.87;;;;;;;11.92;55.89;98175.13;7029255;28;20197;-84
2023/03/13 02:03:15;;;;;;;10.77;3.87;;;;;;;12.11;55.58;98181.31;7030292;28;20307;-84
2023/03/13 02:06:40;;;;;;;9.17;3.83;;;;;;;12.25;54.92;98155.72;7030350;28;20204;-84
2023/03/13 02:10:01;;;;;;;10.43;3.53;;;;;;;11.96;55.27;98168.22;7029669;28;20272;-84
2023/03/13 02:13:23;;;;;;;8.13;3.83;;;;;;;11.89;56.17;98153.16;7030130;28;20291;-84
2023/03/13 02:16:47;;;;;;;7.73;3.30;;;;;;;11.40;57.42;98146.06;7030467;28;20213;-84
2023/03/13 02:20:11;;;;;;;8.03;3.93;;;;;;;12.06;56.03;98141.47;7030799;28;20204;-84
2023/03/13 02:23:36;;;;;;;12.83;5.10;;;;;;;12.15;55.78;98131.97;7030388;28;20338;-84
2023/03/13 02:26:59;;;;;;;18.20;8.03;;;;;;;12.30;55.21;98132.38;7029944;28;20272;-84
2023/03/13 02:30:21;;;;;;;10.20;4.57;;;;;;;11.57;57.21;98143.59;7029884;28;20311;-84
2023/03/13 02:33:43;;;;;;;11.07;5.93;;;;;;;12.16;55.52;98128.22;7030691;28;20651;-84
2023/03/13 02:37:06;;;;;;;9.93;3.90;;;;;;;12.05;55.77;98101.16;7030836;28;20200;-84
2023/03/13 02:40:29;;;;;;;9.40;4.10;;;;;;;12.33;55.06;98121.06;7027128;28;20661;-84
2023/03/13 02:43:52;;;;;;;11.43;4.50;;;;;;;12.15;55.36;98106.84;7026099;28;20264;-84
2023/03/13 02:47:18;;;;;;;9.87;4.63;;;;;;;12.43;55.41;98106.97;7026218;28;20205;-84
2023/03/13 02:50:39;;;;;;;7.80;3.70;;;;;;;12.44;54.96;98104.06;7030653;28;20270;-84
2023/03/13 02:54:03;;;;;;;11.60;4.13;;;;;;;11.97;56.25;98074.47;7031072;28;20261;-83
2023/03/13 02:57:25;;;;;;;10.57;3.80;;;;;;;12.23;54.94;98080.28;7031233;28;20296;-83
2023/03/13 03:00:48;;;;;;;9.17;2.80;;;;;;;12.81;53.61;98080.31;7029954;28;20232;-83
2023/03/13 03:04:09;;;;;;;5.27;2.80;;;;;;;13.63;51.94;98064.47;7046192;28;20245;-84
2023/03/13 03:07:31;;;;;;;6.93;3.70;;;;;;;14.10;50.98;98041.47;7030594;28;20211;-82
2023/03/13 03:10:52;;;;;;;6.90;2.40;;;;;;;14.26;50.10;98037.13;7032691;28;20236;-82
2023/03/13 03:14:14;;;;;;;4.70;2.67;;;;;;;13.84;50.12;97993.34;7050592;28;20268;-82
2023/03/13 03:17:37;;;;;;;7.27;3.13;;;;;;;14.55;49.35;98016.97;7030516;28;20274;-81
2023/03/13 03:20:59;;;;;;;6.10;3.07;;;;;;;14.52;49.58;98022.91;7029766;28;20691;-82
2023/03/13 03:24:20;;;;;;;4.73;2.57;;;;;;;14.69;49.10;98000.09;7029731;28;20275;-82
2023/03/13 03:27:42;;;;;;;6.70;2.40;;;;;;;14.79;49.17;98019.25;7029456;28;20279;-82
2023/03/13 03:31:04;;;;;;;5.17;2.53;;;;;;;14.83;49.65;98003.28;7028494;28;20310;-81
2023/03/13 03:34:27;;;;;;;5.77;2.77;;;;;;;15.13;49.56;98009.09;7029143;28;20205;-82
2023/03/13 03:37:49;;;;;;;3.33;2.40;;;;;;;15.02;50.13;98023.59;7028263;28;20209;-82
2023/03/13 03:41:12;;;;;;;4.93;2.43;;;;;;;15.46;49.14;98009.78;7027990;28;20364;-82
2023/03/13 03:44:34;;;;;;;7.63;2.50;;;;;;;15.37;49.70;98013.19;7028776;28;20202;-82
2023/03/13 03:47:58;;;;;;;3.80;2.10;;;;;;;15.12;50.54;98002.84;7028485;28;20344;-82
2023/03/13 03:51:21;;;;;;;3.40;2.00;;;;;;;15.31;50.19;97995.19;7028081;28;20535;-82
2023/03/13 03:54:43;;;;;;;5.83;2.70;;;;;;;15.23;50.31;97979.34;7028087;28;20263;-82
2023/03/13 03:58:04;;;;;;;3.87;2.13;;;;;;;15.55;49.80;98007.44;7028327;28;20205;-82
2023/03/13 04:01:26;;;;;;;3.77;2.00;;;;;;;15.32;50.62;97985.94;7026372;28;20231;-82
2023/03/13 04:04:47;;;;;;;3.20;2.00;;;;;;;15.53;50.13;97988.69;7027657;28;20212;-82
2023/03/13 04:08:10;;;;;;;3.27;2.00;;;;;;;15.28;50.47;98004.66;7027825;28;20754;-82
2023/03/13 04:11:32;;;;;;;5.70;2.80;;;;;;;15.46;50.21;97984.53;7027661;28;20376;-82
2023/03/13 04:14:53;;;;;;;3.43;2.00;;;;;;;15.78;49.32;98009.84;7027446;28;20254;-82
2023/03/13 04:18:15;;;;;;;4.43;2.00;;;;;;;16.21;48.59;98007.78;7027650;28;20209;-80
2023/03/13 04:21:38;;;;;;;3.80;2.43;;;;;;;15.96;48.72;97996.69;7026702;28;20327;-79
2023/03/13 04:25:01;;;;;;;4.50;2.67;;;;;;;16.27;48.33;97997.78;7027883;28;20206;-79
2023/03/13 04:28:22;;;;;;;3.97;1.80;;;;;;;16.44;47.84;97980.25;7027407;28;20206;-79
2023/03/13 04:31:44;;;;;;;2.37;2.17;;;;;;;16.33;48.43;97981.22;7026800;28;20226;-79
2023/03/13 04:35:06;;;;;;;2.27;2.00;;;;;;;15.81;49.99;97976.72;7027572;28;20287;-79
2023/03/13 04:38:27;;;;;;;4.30;1.80;;;;;;;16.23;49.00;97989.28;7026901;28;20684;-79
2023/03/13 04:41:50;;;;;;;2.43;1.97;;;;;;;16.31;48.89;97975.22;7026557;28;20243;-79
2023/03/13 04:45:12;;;;;;;3.43;1.70;;;;;;;15.50;51.83;97964.72;7027678;28;20209;-79
2023/03/13 04:48:34;;;;;;;1.70;1.60;;;;;;;15.52;51.72;97978.06;7030541;28;20207;-80
2023/03/13 04:51:55;;;;;;;2.10;1.80;;;;;;;16.26;50.17;97972.47;7031025;28;20221;-79
2023/03/13 04:55:17;;;;;;;2.57;1.90;;;;;;;15.19;53.28;97983.63;7031452;28;20206;-80
2023/03/13 04:58:40;;;;;;;4.13;1.87;;;;;;;16.33;49.81;97969.53;7031004;28;20390;-79
2023/03/13 05:02:01;;;;;;;2.33;1.80;;;;;;;15.81;52.34;97993.03;7030917;28;20283;-80
2023/03/13 05:05:23;;;;;;;2.00;1.70;;;;;;;15.81;51.88;97965.84;7030802;28;20786;-80
2023/03/13 05:08:44;;;;;;;2.60;1.63;;;;;;;16.03;51.99;97986.41;7027097;28;20208;-80
2023/03/13 05:12:06;;;;;;;3.13;1.60;;;;;;;16.46;49.97;97960.94;7035474;28;20710;-80
2023/03/13 05:15:29;;;;;;;1.70;1.60;;;;;;;16.21;50.78;97975.13;7039339;28;20345;-80
2023/03/13 05:18:51;;;;;;;4.20;1.73;;;;;;;16.86;49.59;97981.03;7040328;28;20253;-81
2023/03/13 05:22:12;;;;;;;2.73;1.73;;;;;;;16.69;49.60;97977.66;7030857;28;20263;-80
2023/03/13 05:25:34;;;;;;;2.27;1.43;;;;;;;16.56;49.49;97948.19;7051070;28;20295;-80
2023/03/13 05:28:55;;;;;;;1.83;1.70;;;;;;;16.86;49.42;97958.44;7036305;28;20207;-80
2023/03/13 05:32:18;;;;;;;1.97;1.50;;;;;;;16.30;50.70;97975.47;7047277;28;20230;-80
2023/03/13 05:35:39;;;;;;;2.27;2.07;;;;;;;16.28;50.46;97977.66;7053793;28;20653;-81
2023/03/13 05:39:01;;;;;;;2.13;1.83;;;;;;;16.19;50.79;97941.13;7051875;28;20313;-81
2023/03/13 05:42:23;;;;;;;2.13;1.93;;;;;;;16.39;51.14;97963.88;7053280;28;20376;-81
2023/03/13 05:45:45;;;;;;;3.30;1.87;;;;;;;15.76;53.42;97973.94;7052696;28;20204;-80
2023/03/13 05:49:08;;;;;;;3.60;1.60;;;;;;;16.46;51.53;97959.00;7053846;28;20710;-80
2023/03/13 05:52:29;;;;;;;1.83;1.73;;;;;;;16.45;51.09;97938.34;7053294;28;20223;-81
2023/03/13 05:55:51;;;;;;;2.17;1.73;;;;;;;16.24;52.45;97971.09;7053234;28;20226;-80
2023/03/13 05:59:12;;;;;;;1.90;1.80;;;;;;;16.72;51.42;97944.47;7053148;28;20270;-81
2023/03/13 06:02:34;;;;;;;1.83;1.73;;;;;;;16.79;51.09;97960.56;7052760;28;20716;-79
2023/03/13 06:05:59;;;;;;;2.97;1.87;;;;;;;16.78;51.15;97959.75;7052647;28;20287;-82
2023/03/13 06:09:20;;;;;;;1.63;1.40;;;;;;;16.33;52.48;97953.22;7050592;28;20214;-82
2023/03/13 06:12:42;;;;;;;2.67;1.70;;;;;;;16.70;51.74;97962.16;7041739;28;20254;-80
2023/03/13 06:16:04;;;;;;;3.10;2.00;;;;;;;17.01;50.81;97939.44;7024251;28;20325;-80
2023/03/13 06:19:25;;;;;;;2.93;1.70;;;;;;;16.60;51.70;97945.78;7025023;28;20742;-80
2023/03/13 06:22:48;;;;;;;4.53;2.53;;;;;;;16.85;51.11;97954.88;7025031;28;20232;-80
2023/03/13 06:26:10;;;;;;;2.40;1.83;;;;;;;16.39;51.62;97914.91;7030286;28;20204;-80
2023/03/13 06:29:31;;;;;;;1.93;1.70;;;;;;;16.13;52.31;97923.13;7030286;28;20232;-80
2023/03/13 06:32:53;;;;;;;2.00;1.60;;;;;;;16.28;52.43;97964.84;7030059;28;20259;-81
2023/03/13 06:36:14;;;;;;;1.47;1.37;;;;;;;16.42;52.54;97966.09;7030432;28;20232;-81
2023/03/13 06:39:37;;;;;;;2.33;1.83;;;;;;;16.26;52.90;97966.19;7030035;28;20202;-80
2023/03/13 06:42:58;;;;;;;1.43;1.30;;;;;;;16.95;51.08;97960.38;7031094;28;20329;-80
2023/03/13 06:46:22;;;;;;;2.00;1.60;;;;;;;17.62;49.55;97957.59;7031576;28;20642;-81
2023/03/13 06:49:43;;;;;;;1.60;1.50;;;;;;;17.33;49.88;97956.44;7030653;28;20346;-81
2023/03/13 06:53:05;;;;;;;2.63;1.50;;;;;;;17.31;50.01;97959.41;7030229;28;20307;-80
2023/03/13 06:56:28;;;;;;;1.63;1.50;;;;;;;17.81;49.12;97939.66;7051918;28;20204;-81
2023/03/13 06:59:49;;;;;;;1.80;1.37;;;;;;;17.62;49.48;97966.59;7057133;28;20299;-79
2023/03/13 07:03:11;;;;;;;1.40;1.30;;;;;;;17.61;49.56;97964.13;7058680;28;20673;-81
2023/03/13 07:06:32;;;;;;;2.30;1.50;;;;;;;17.21;50.53;97972.19;7058537;28;20295;-81
2023/03/13 07:09:54;;;;;;;1.87;1.40;;;;;;;17.44;49.77;97982.63;7057619;28;21064;-81
2023/03/13 07:13:18;;;;;;;3.60;1.50;;;;;;;16.81;51.52;97970.09;7057367;28;20200;-80
2023/03/13 07:16:40;;;;;;;1.80;1.40;;;;;;;17.12;51.08;97973.78;7057467;28;20306;-81
2023/03/13 07:20:01;;;;;;;1.67;1.57;;;;;;;17.09;51.29;97979.75;7056001;28;20228;-81
2023/03/13 07:23:23;;;;;;;1.73;1.57;;;;;;;17.33;50.89;97991.84;7057111;28;20685;-81
2023/03/13 07:26:45;;;;;;;1.50;1.40;;;;;;;16.59;53.13;97991.22;7049778;28;20350;-81
2023/03/13 07:30:09;;;;;;;1.60;1.50;;;;;;;16.72;53.20;97979.03;7055434;28;20210;-81
2023/03/13 07:33:31;;;;;;;1.87;1.33;;;;;;;16.88;52.64;97962.50;7066626;27;20269;-80
2023/03/13 07:36:52;;;;;;;1.53;1.43;;;;;;;17.18;52.16;97973.56;7040124;28;20223;-80
2023/03/13 07:40:14;;;;;;;1.53;1.43;;;;;;;17.18;52.65;97978.16;7034860;28;20306;-81
2023/03/13 07:43:35;;;;;;;1.70;1.27;;;;;;;17.29;52.06;97967.03;7032079;28;20225;-81
2023/03/13 07:47:00;;;;;;;1.53;1.43;;;;;;;17.56;51.85;97962.22;7034817;28;20412;-80
2023/03/13 07:50:22;;;;;;;1.33;1.30;;;;;;;17.51;51.12;97950.50;7059618;28;20228;-80
2023/03/13 07:53:43;;;;;;;1.87;1.70;;;;;;;17.18;52.58;97956.38;7058302;28;20343;-82
2023/03/13 07:57:05;;;;;;;1.60;1.50;;;;;;;17.48;52.42;97968.22;7035872;28;20253;-81
2023/03/13 08:00:26;;;;;;;1.23;1.20;;;;;;;17.55;51.83;97952.41;7031164;28;20319;-81
2023/03/13 08:03:50;;;;;;;1.73;1.40;;;;;;;17.58;51.70;97948.34;7027608;28;20217;-81
2023/03/13 08:07:12;;;;;;;1.70;1.60;;;;;;;17.87;51.31;97942.09;7029925;28;20257;-82
2023/03/13 08:10:34;;;;;;;1.40;1.33;;;;;;;18.15;50.57;97930.63;7035652;28;20696;-80
2023/03/13 08:13:57;;;;;;;2.03;1.50;;;;;;;17.68;51.56;97918.38;7045128;28;20205;-80
2023/03/13 08:17:19;;;;;;;1.10;1.10;;;;;;;17.87;51.11;97919.47;7053559;28;20231;-81
2023/03/13 08:20:42;;;;;;;1.50;1.40;;;;;;;17.42;52.39;97909.34;7033713;28;20762;-80
2023/03/13 08:24:05;;;;;;;16.20;10.53;;;;;;;17.71;52.01;97896.84;7027301;28;20319;-81
2023/03/13 08:27:29;;;;;;;1.20;1.20;;;;;;;17.81;51.34;97875.00;7038593;28;20257;-81
2023/03/13 08:30:50;;;;;;;1.77;1.30;;;;;;;18.02;50.43;97864.88;7042608;28;20228;-81
2023/03/13 08:34:13;;;;;;;2.00;1.40;;;;;;;18.57;49.60;97881.19;7057244;28;20264;-81
2023/03/13 08:37:35;;;;;;;1.47;1.37;;;;;;;18.58;49.79;97872.69;7056739;28;20722;-80
2023/03/13 08:40:57;;;;;;;1.43;1.33;;;;;;;18.76;49.83;97846.69;7041617;28;20225;-80
2023/03/13 08:44:20;;;;;;;1.87;1.60;;;;;;;18.85;48.96;97877.78;7029042;28;20252;-80
2023/03/13 08:47:41;;;;;;;1.83;1.73;;;;;;;19.07;48.81;97878.22;7027563;28;20216;-80
2023/03/13 08:51:03;;;;;;;1.60;1.50;;;;;;;19.50;47.94;97864.59;7026921;28;20236;-80
2023/03/13 08:54:26;;;;;;;1.47;1.40;;;;;;;18.80;49.45;97866.91;7030235;28;20205;-80
2023/03/13 08:57:47;;;;;;;2.60;1.97;;;;;;;19.37;48.14;97864.41;7056978;28;20616;-80
2023/03/13 09:01:10;;;;;;;2.00;1.80;;;;;;;19.84;46.48;97870.03;7056750;28;20315;-80
2023/03/13 09:04:32;;;;;;;1.57;1.47;;;;;;;18.50;49.36;97888.81;7055988;28;20228;-80
2023/03/13 09:07:53;;;;;;;1.87;1.77;;;;;;;18.65;49.35;97891.53;7046566;28;20204;-80
2023/03/13 09:11:18;;;;;;;4.37;3.33;;;;;;;18.57;49.70;97890.16;7033871;28;20301;-80
2023/03/13 09:14:39;;;;;;;1.60;1.50;;;;;;;18.46;49.51;97874.13;7056112;28;20197;-80
2023/03/13 09:18:01;;;;;;;1.80;1.70;;;;;;;18.09;50.33;97885.34;7056075;28;20345;-80
2023/03/13 09:21:25;;;;;;;2.20;1.70;;;;;;;18.51;49.69;97887.75;7073653;28;20299;-78
2023/03/13 09:24:46;;;;;;;2.50;2.30;;;;;;;18.92;48.82;97887.31;7052239;28;20220;-80
2023/03/13 09:28:09;;;;;;;1.93;1.70;;;;;;;18.92;48.46;97868.19;7025553;28;20201;-79
2023/03/13 09:31:31;;;;;;;2.80;1.90;;;;;;;19.45;47.21;97872.00;7024856;28;20226;-80
2023/03/13 09:34:53;;;;;;;1.50;1.40;;;;;;;19.37;46.97;97883.53;7025911;28;20269;-79
2023/03/13 09:38:15;;;;;;;2.90;1.73;;;;;;;19.59;47.02;97883.94;7026290;28;20216;-80
2023/03/13 09:41:40;;;;;;;2.27;1.67;;;;;;;19.74;46.27;97876.41;7044954;28;20231;-78
2023/03/13 09:45:06;;;;;;;4.57;1.63;;;;;;;19.59;46.35;97892.97;7063490;28;20240;-78
2023/03/13 09:48:30;;;;;;;2.30;1.70;;;;;;;19.73;46.21;97887.63;7058051;28;20190;-79
2023/03/13 09:51:56;;;;;;;2.03;1.83;;;;;;;19.43;46.75;97891.44;7055956;28;20314;-79
2023/03/13 09:55:20;;;;;;;5.33;4.87;;;;;;;18.89;48.32;97897.97;7054355;28;20256;-76
2023/03/13 09:58:50;;;;;;;1.60;1.50;;;;;;;19.60;46.70;97904.69;7061858;28;20350;-79
2023/03/13 10:02:20;;;;;;;3.53;1.80;;;;;;;19.70;46.61;97904.63;7053563;28;20228;-80
2023/03/13 10:05:46;;;;;;;2.40;1.90;;;;;;;20.03;45.96;97898.31;7055138;28;20244;-80
2023/03/13 10:09:20;;;;;;;2.37;1.80;;;;;;;19.80;45.97;97879.94;7054597;28;20185;-79
2023/03/13 10:12:44;;;;;;;5.43;2.27;;;;;;;20.46;44.79;97876.31;7024956;28;20557;-78
2023/03/13 10:16:08;;;;;;;2.30;1.93;;;;;;;20.28;44.74;97854.34;7024037;28;20286;-79
2023/03/13 10:19:36;;;;;;;4.20;2.00;;;;;;;20.38;45.21;97860.53;7027048;28;20208;-79
2023/03/13 10:23:00;;;;;;;2.53;1.60;;;;;;;21.64;42.11;97842.09;7047224;28;20678;-79
2023/03/13 10:26:25;;;;;;;2.23;1.80;;;;;;;21.47;41.67;97836.34;7041504;28;20284;-79
2023/03/13 10:29:47;;;;;;;1.83;1.50;;;;;;;22.44;39.88;97826.16;7051602;28;20274;-80
2023/03/13 10:33:23;;;;;;;3.97;1.90;;;;;;;21.94;40.73;97810.59;7053080;28;20354;-80
2023/03/13 10:36:47;;;;;;;4.80;2.30;;;;;;;21.77;40.91;97799.41;7052977;28;20231;-80
2023/03/13 10:40:14;;;;;;;3.10;2.17;;;;;;;22.21;40.12;97780.44;7053537;28;20305;-80
2023/03/13 10:43:49;;;;;;;3.07;2.10;;;;;;;22.42;39.51;97793.47;7052950;28;20229;-81
2023/03/13 10:47:13;;;;;;;1.90;1.70;;;;;;;22.86;38.29;97793.69;7050901;28;20183;-80
2023/03/13 10:50:35;;;;;;;4.10;1.90;;;;;;;22.68;38.43;97788.31;7052239;28;20316;-80
2023/03/13 10:53:58;;;;;;;3.27;1.90;;;;;;;22.47;38.90;97793.41;7053330;28;20581;-80
2023/03/13 10:57:29;;;;;;;3.30;1.90;;;;;;;22.87;38.34;97781.56;7027890;28;20202;-80
2023/03/13 11:00:51;;;;;;;2.07;1.90;;;;;;;22.50;38.48;97770.00;7024926;28;20220;-80
2023/03/13 11:04:20;;;;;;;3.53;1.53;;;;;;;22.76;38.47;97782.91;7024644;28;20608;-80
2023/03/13 11:07:44;;;;;;;3.30;1.90;;;;;;;22.73;37.85;97768.97;7025069;28;20253;-80
2023/03/13 11:11:17;;;;;;;3.93;2.20;;;;;;;22.46;38.94;97767.06;7029361;28;20232;-79
2023/03/13 11:14:39;;;;;;;3.00;1.97;;;;;;;23.74;36.17;97746.19;7030140;28;20181;-80
2023/03/13 11:18:04;;;;;;;5.77;1.97;;;;;;;23.88;36.62;97756.03;7029383;28;20228;-80
2023/03/13 11:21:32;;;;;;;3.37;1.80;;;;;;;23.47;37.00;97757.34;7029063;28;20315;-80
2023/03/13 11:25:02;;;;;;;2.40;1.80;;;;;;;23.26;37.17;97748.78;7033026;28;20309;-80
2023/03/13 11:28:29;;;;;;;3.60;2.23;;;;;;;23.25;37.99;97741.66;7057811;28;20215;-79
2023/03/13 11:31:54;;;;;;;3.20;1.80;;;;;;;23.35;37.33;97741.41;7038345;28;20230;-80
2023/03/13 11:35:21;;;;;;;2.07;1.70;;;;;;;22.84;37.75;97716.19;7030988;28;20253;-79
2023/03/13 11:38:44;;;;;;;2.03;1.63;;;;;;;22.72;38.44;97731.63;7051405;28;20675;-80
2023/03/13 11:42:09;;;;;;;1.97;1.63;;;;;;;23.05;37.43;97698.13;7057147;28;20247;-79
2023/03/13 11:45:50;;;;;;;3.07;1.70;;;;;;;22.60;37.85;97690.13;7050741;28;20226;-79
2023/03/13 11:49:55;;;;;;;1.90;1.80;;;;;;;23.36;36.96;97698.22;7057729;28;20286;-79
2023/03/13 11:53:34;;;;;;;2.03;1.80;;;;;;;23.79;36.40;97669.78;7026194;28;20202;-78
2023/03/13 11:56:58;;;;;;;1.97;1.53;;;;;;;24.57;34.65;97649.66;7063167;28;20260;-79
2023/03/13 12:00:24;;;;;;;3.97;2.07;;;;;;;24.04;35.33;97651.78;7061703;28;20693;-79
2023/03/13 12:03:56;;;;;;;2.83;2.10;;;;;;;24.31;35.43;97611.00;7056429;28;20264;-79
2023/03/13 12:07:21;;;;;;;2.60;1.80;;;;;;;24.17;35.42;97626.88;7061276;28;20220;-79
2023/03/13 12:10:48;;;;;;;4.10;1.80;;;;;;;23.87;35.80;97619.50;7055855;28;20231;-79
2023/03/13 12:14:12;;;;;;;3.33;1.90;;;;;;;24.04;35.91;97600.28;7056790;28;20192;-78
2023/03/13 12:17:35;;;;;;;4.20;2.03;;;;;;;24.57;35.47;97589.84;7056485;28;20314;-79
2023/03/13 12:21:02;;;;;;;2.60;1.53;;;;;;;24.99;34.42;97569.69;7054583;28;20234;-79
2023/03/13 12:24:27;;;;;;;1.97;1.77;;;;;;;24.90;34.57;97587.41;7055818;28;20334;-80
2023/03/13 12:27:51;;;;;;;4.07;1.77;;;;;;;25.45;34.40;97564.25;7052721;28;20205;-80
2023/03/13 12:31:18;;;;;;;1.90;1.77;;;;;;;25.28;33.93;97572.59;7040312;28;20347;-81
2023/03/13 12:34:50;;;;;;;1.70;1.60;;;;;;;25.28;33.31;97517.41;7046484;28;20705;-80
2023/03/13 12:38:17;;;;;;;2.20;1.73;;;;;;;25.13;34.38;97531.69;7047170;28;20513;-80
2023/03/13 12:41:43;;;;;;;2.40;1.80;;;;;;;25.35;33.70;97514.09;7038677;28;20709;-80
2023/03/13 12:45:05;;;;;;;1.63;1.53;;;;;;;25.26;33.86;97524.38;7054453;28;20752;-80
2023/03/13 12:48:53;;;;;;;2.70;1.57;;;;;;;24.88;33.29;97512.44;7055620;28;20663;-81
2023/03/13 12:52:34;;;;;;;3.63;1.70;;;;;;;25.02;33.68;97491.00;7052360;28;20229;-80
2023/03/13 12:56:09;;;;;;;1.90;1.40;;;;;;;25.13;33.26;97484.78;7054655;28;20720;-80
2023/03/13 12:59:33;;;;;;;3.33;1.77;;;;;;;24.89;33.41;97454.22;7054281;28;20291;-81
2023/03/13 13:03:03;;;;;;;1.67;1.57;;;;;;;25.27;33.14;97438.53;7054770;28;20224;-80
2023/03/13 13:06:24;;;;;;;3.70;1.97;;;;;;;25.42;33.02;97442.69;7054229;28;20720;-80
2023/03/13 13:10:01;;;;;;;3.07;1.60;;;;;;;26.68;31.18;97417.97;7053248;28;20208;-80
2023/03/13 13:13:30;;;;;;;1.40;1.30;;;;;;;26.24;31.64;97415.13;7055980;28;20240;-82
2023/03/13 13:16:55;;;;;;;4.70;2.53;;;;;;;26.27;31.58;97373.00;7053475;28;20203;-81
2023/03/13 13:20:35;;;;;;;3.77;1.50;;;;;;;26.59;31.42;97397.88;7054000;28;20327;-81
2023/03/13 13:24:35;;;;;;;2.37;1.70;;;;;;;26.12;32.05;97399.28;7054602;28;20618;-80
2023/03/13 13:27:57;;;;;;;1.43;1.30;;;;;;;26.05;31.62;97387.16;7041809;28;20244;-80
2023/03/13 13:31:57;;;;;;;1.87;1.63;;;;;;;25.49;31.42;97372.00;7024443;28;20305;-80
2023/03/13 13:35:30;;;;;;;4.23;1.60;;;;;;;25.46;32.17;97371.84;7024431;28;20659;-80
2023/03/13 13:38:52;;;;;;;6.70;2.60;;;;;;;25.41;32.51;97366.53;7024810;28;20225;-80
2023/03/13 13:42:40;;;;;;;1.60;1.50;;;;;;;25.55;32.09;97356.84;7044755;28;20300;-80
2023/03/13 13:46:07;;;;;;;2.93;1.60;;;;;;;26.03;32.00;97351.63;7043801;28;20228;-80
2023/03/13 13:49:35;;;;;;;3.63;1.60;;;;;;;26.34;30.99;97332.59;7052722;28;20220;-80
2023/03/13 13:53:28;;;;;;;2.33;1.60;;;;;;;25.61;31.60;97324.34;7052316;28;20228;-80
2023/03/13 13:56:50;;;;;;;2.07;1.50;;;;;;;25.10;31.71;97273.09;7033960;28;20212;-80
2023/03/13 14:00:19;;;;;;;2.03;1.47;;;;;;;25.07;31.66;97276.50;7028426;28;20240;-80
2023/03/13 14:03:41;;;;;;;3.43;1.80;;;;;;;25.93;30.84;97301.50;7052434;28;20210;-80
2023/03/13 14:07:05;;;;;;;2.57;1.50;;;;;;;25.96;30.98;97306.34;7053657;28;20632;-80
2023/03/13 14:10:34;;;;;;;2.40;1.70;;;;;;;25.91;31.10;97296.34;7054362;28;20364;-80
2023/03/13 14:14:13;;;;;;;2.20;1.73;;;;;;;25.93;30.22;97290.44;7056920;28;20337;-80
2023/03/13 14:17:38;;;;;;;4.27;2.03;;;;;;;26.09;30.85;97280.38;7051743;28;20343;-81
2023/03/13 14:21:01;;;;;;;3.17;1.63;;;;;;;25.85;30.80;97267.28;7052305;28;20315;-81
2023/03/13 14:24:24;;;;;;;3.40;1.67;;;;;;;25.87;30.86;97244.81;7054231;28;20291;-81
2023/03/13 14:27:47;;;;;;;1.73;1.60;;;;;;;26.60;29.53;97261.25;7053856;28;20285;-81
2023/03/13 14:31:10;;;;;;;4.37;1.57;;;;;;;26.63;28.79;97260.56;7052496;28;20275;-80
2023/03/13 14:34:32;;;;;;;2.00;1.47;;;;;;;26.57;29.88;97212.19;7053257;28;20601;-81
2023/03/13 14:38:03;;;;;;;2.60;1.60;;;;;;;27.07;28.99;97223.63;7053928;28;20258;-80
2023/03/13 14:41:30;;;;;;;1.83;1.30;;;;;;;26.35;29.05;97184.16;7053463;28;20265;-80
2023/03/13 14:44:53;;;;;;;4.07;2.30;;;;;;;25.95;30.53;97208.06;7056718;28;21085;-81
2023/03/13 14:48:19;;;;;;;1.43;1.33;;;;;;;25.89;30.63;97224.00;7054843;28;20205;-81
2023/03/13 14:51:40;;;;;;;2.77;1.43;;;;;;;25.86;30.23;97163.13;7050484;28;20231;-80
2023/03/13 14:55:04;;;;;;;2.63;1.70;;;;;;;26.49;29.65;97198.44;7052464;28;20247;-81
2023/03/13 14:58:29;;;;;;;2.30;1.70;;;;;;;26.04;30.41;97173.69;7053320;28;20709;-81
2023/03/13 15:01:59;;;;;;;2.40;1.70;;;;;;;26.36;29.56;97181.03;7047090;28;20313;-81
2023/03/13 15:05:32;;;;;;;2.97;1.73;;;;;;;25.76;30.52;97116.63;7038280;28;20209;-81
2023/03/13 15:09:19;;;;;;;2.63;1.90;;;;;;;25.85;30.79;97175.34;7028824;28;20283;-81
2023/03/13 15:12:43;;;;;;;4.57;1.83;;;;;;;25.67;30.94;97151.84;7028388;28;20223;-81
2023/03/13 15:16:14;;;;;;;1.87;1.57;;;;;;;25.59;31.35;97127.91;7028709;28;20261;-81
2023/03/13 15:19:36;;;;;;;1.93;1.70;;;;;;;25.67;31.34;97132.50;7027936;28;20211;-81
2023/03/13 15:22:58;;;;;;;2.13;1.60;;;;;;;25.59;31.22;97125.13;7028031;28;20311;-81
2023/03/13 15:26:19;;;;;;;2.97;1.40;;;;;;;25.41;31.62;97109.88;7028790;28;20261;-81
2023/03/13 15:29:41;;;;;;;2.70;1.43;;;;;;;25.16;31.68;97097.16;7027947;28;20667;-81
2023/03/13 15:33:04;;;;;;;4.63;1.60;;;;;;;25.40;31.25;97056.69;7028678;28;20224;-81
2023/03/13 15:36:27;;;;;;;2.87;1.53;;;;;;;25.76;30.71;97037.38;7028002;28;20701;-81
2023/03/13 15:39:48;;;;;;;3.50;1.53;;;;;;;26.29;30.21;97070.28;7027922;28;20317;-81
2023/03/13 15:43:10;;;;;;;2.33;1.60;;;;;;;26.57;30.46;97062.91;7028010;28;20291;-80
2023/03/13 15:46:32;;;;;;;2.83;1.77;;;;;;;25.95;31.21;97031.31;7027516;28;20276;-81
2023/03/13 15:49:55;;;;;;;2.53;1.50;;;;;;;25.70;31.04;97047.03;7027796;28;20207;-81
2023/03/13 15:53:18;;;;;;;3.90;2.20;;;;;;;25.58;31.94;97037.94;7028008;28;20299;-81
2023/03/13 15:56:40;;;;;;;3.40;2.20;;;;;;;25.93;31.64;97036.38;7026266;28;20205;-81
2023/03/13 16:00:02;;;;;;;4.83;1.67;;;;;;;25.30;32.67;97031.47;7027445;28;20296;-81